Home   Weather   USA   Poughkeepsie   Past weeks
Flag for USA

Past Weather in Poughkeepsie, New York, USA — September 2021

Currently: 79 °F. Sunny. (Weather station: Dutchess County Airport, USA). See more current weather

September 2021 Weather in Poughkeepsie — Graph

°F

High & Low Weather Summary for September 2021

 TemperatureHumidityPressure
High86 °F (Sep 15, 3:53 pm)100% (Sep 6, 6:35 am)30.36 "Hg (Sep 6, 6:35 am)
Low45 °F (Sep 29, 6:53 am)38% (Sep 10, 3:53 pm)29.63 "Hg (Sep 2, 1:53 am)
Average66 °F80%29.97 "Hg
* Reported Sep 1 12:53 am — Sep 30 11:53 pm, Poughkeepsie. Weather by CustomWeather, © 2022

Note: Actual official high and low records may vary slightly from our data, if they occured in-between our weather recording intervals... More about our weather records

Poughkeepsie Weather History for September 1, 2021

Scroll right to see more
 ConditionsComfort  
Time TempWeatherWind HumidityBarometerVisibility
12:53 am
Wed, Sep 1
67 °FClear.No wind90%29.78 "Hg10 mi
1:53 am67 °FPassing clouds.No wind90%29.78 "Hg10 mi
2:53 am67 °FOvercast.No wind90%29.78 "Hg10 mi
3:53 am67 °FOvercast.No wind90%29.77 "Hg10 mi
4:53 am68 °FOvercast.No wind87%29.78 "Hg10 mi
5:53 am68 °FOvercast.No wind90%29.80 "Hg10 mi
6:53 am67 °FMostly cloudy.No wind93%29.82 "Hg10 mi
7:53 am67 °FLight rain. Fog.No wind93%29.83 "Hg2 mi
8:53 am66 °FLight rain. Fog.5 mph90%29.82 "Hg2 mi
9:53 am66 °FRain. Fog.5 mph90%29.82 "Hg2 mi
10:53 am65 °FRain. Fog.3 mph94%29.83 "Hg2 mi
12:07 pm66 °FRain. Fog.8 mph93%29.82 "Hg2 mi
12:17 pm66 °FRain. Fog.7 mph93%29.83 "Hg2 mi
12:39 pm66 °FRain. Fog.3 mph96%29.82 "Hg2 mi
12:53 pm67 °FRain. Fog.No wind93%29.81 "Hg2 mi
1:03 pm66 °FHeavy rain. Fog.No wind96%29.84 "Hg1 mi
1:53 pm66 °FHeavy rain. Fog.8 mph96%29.82 "Hg2 mi
3:00 pm66 °FRain. Fog.9 mph96%29.80 "Hg5 mi
3:53 pm67 °FRain. Fog.7 mph93%29.77 "Hg4 mi
4:20 pm67 °FLight rain. Fog.9 mph90%29.77 "Hg4 mi
4:53 pm66 °FRain. Fog.7 mph96%29.78 "Hg2 mi
5:53 pm65 °FHeavy rain. Fog.9 mph97%29.78 "Hg2 mi
6:53 pm65 °FHeavy rain. Fog.13 mph94%29.74 "Hg2 mi
7:53 pm64 °FHeavy rain. Fog.15 mph94%29.73 "Hg2 mi
8:53 pm63 °FHeavy rain. Fog.13 mph90%29.69 "Hg2 mi
9:08 pm62 °FHeavy rain. Fog.12 mph96%29.70 "Hg2 mi
9:13 pm62 °FHeavy rain. Fog.14 mph96%29.70 "Hg2 mi
9:33 pm62 °FHeavy rain. Fog.16 mph93%29.70 "Hg2 mi
9:53 pm62 °FHeavy rain. Fog.15 mph93%29.64 "Hg2 mi
10:19 pm61 °FHeavy rain. Fog.8 mph97%29.68 "Hg1 mi
10:27 pm61 °FHeavy rain. Fog.9 mph97%29.69 "Hg1 mi
11:00 pm61 °FHeavy rain. Fog.13 mph97%29.67 "Hg2 mi
11:42 pm61 °FHeavy rain. Fog.12 mph97%29.65 "Hg2 mi
11:53 pm61 °FHeavy rain. Fog.7 mph97%29.65 "Hg3 mi
Weather by CustomWeather, © 2022

See weather overview